createdAt,value
2023-01-03T00:00:03.976Z,0.80
2023-01-03T00:02:32.079Z,0.93
2023-01-03T00:05:01.549Z,0.87
2023-01-03T00:07:35.725Z,0.73
2023-01-03T00:10:04.805Z,0.73
2023-01-03T00:12:33.824Z,0.77
2023-01-03T00:15:01.898Z,1.00
2023-01-03T00:17:30.131Z,0.87
2023-01-03T00:19:58.100Z,0.67
2023-01-03T00:22:27.579Z,0.57
2023-01-03T00:24:55.547Z,0.60
2023-01-03T00:27:23.503Z,0.60
2023-01-03T00:29:51.444Z,2.07
2023-01-03T00:32:19.782Z,1.73
2023-01-03T00:34:48.036Z,0.87
2023-01-03T00:37:16.421Z,0.60
2023-01-03T00:39:45.813Z,0.87
2023-01-03T00:42:14.086Z,1.23
2023-01-03T00:44:42.023Z,1.07
2023-01-03T00:47:10.029Z,1.40
2023-01-03T00:49:37.979Z,1.10
2023-01-03T00:52:05.960Z,0.80
2023-01-03T00:54:33.966Z,0.93
2023-01-03T00:57:03.296Z,2.00
2023-01-03T00:59:31.275Z,1.87
2023-01-03T01:01:59.389Z,2.17
2023-01-03T01:04:28.797Z,3.50
2023-01-03T01:06:57.719Z,1.63
2023-01-03T01:09:26.794Z,1.67
2023-01-03T01:11:55.279Z,2.40
2023-01-03T01:14:25.552Z,1.20
2023-01-03T01:16:54.322Z,2.20
2023-01-03T01:19:23.916Z,1.33
2023-01-03T01:21:52.181Z,1.57
2023-01-03T01:24:20.566Z,2.07
2023-01-03T01:26:48.799Z,1.03
2023-01-03T01:29:17.102Z,1.00
2023-01-03T01:31:47.236Z,1.17
2023-01-03T01:34:15.477Z,0.80
2023-01-03T01:36:44.222Z,0.90
2023-01-03T01:39:13.804Z,1.20
2023-01-03T01:41:59.820Z,1.33
2023-01-03T01:44:48.062Z,0.60
2023-01-03T01:47:19.098Z,1.30
2023-01-03T01:49:48.617Z,1.33
2023-01-03T01:52:17.891Z,0.80
2023-01-03T01:54:45.953Z,1.70
2023-01-03T01:57:16.223Z,1.17
2023-01-03T01:59:44.404Z,0.60
2023-01-03T02:02:12.685Z,1.17
2023-01-03T02:04:42.259Z,0.73
2023-01-03T02:07:10.229Z,0.63
2023-01-03T02:09:38.187Z,0.90
2023-01-03T02:12:36.046Z,1.03
2023-01-03T02:15:10.172Z,0.67
2023-01-03T02:17:42.601Z,0.93
2023-01-03T02:20:17.704Z,1.10
2023-01-03T02:23:08.039Z,1.30
2023-01-03T02:25:48.986Z,1.07
2023-01-03T02:28:31.458Z,1.60
2023-01-03T02:31:04.707Z,2.27
2023-01-03T02:33:34.245Z,1.97
2023-01-03T02:36:05.940Z,1.87
2023-01-03T02:38:38.749Z,1.90
2023-01-03T02:41:08.647Z,2.87
2023-01-03T02:43:38.984Z,1.87
2023-01-03T02:46:10.462Z,2.80
2023-01-03T02:48:42.532Z,2.37
2023-01-03T02:51:14.106Z,2.27
2023-01-03T02:53:43.224Z,2.87
2023-01-03T02:56:12.627Z,2.10
2023-01-03T02:58:41.535Z,1.93
2023-01-03T03:01:12.679Z,2.37
2023-01-03T03:03:41.765Z,2.57
2023-01-03T03:06:12.952Z,3.33
2023-01-03T03:08:41.012Z,2.10
2023-01-03T03:11:26.309Z,1.80
2023-01-03T03:13:56.763Z,2.43
2023-01-03T03:16:41.224Z,2.20
2023-01-03T03:19:36.066Z,3.30
2023-01-03T03:22:23.937Z,1.80
2023-01-03T03:24:51.934Z,2.23
2023-01-03T03:27:40.272Z,2.03
2023-01-03T03:30:11.706Z,2.43
2023-01-03T03:32:43.024Z,2.53
2023-01-03T03:35:12.535Z,2.30
2023-01-03T03:37:41.474Z,2.00
2023-01-03T03:40:27.246Z,2.03
2023-01-03T03:43:15.324Z,2.57
2023-01-03T03:45:45.070Z,2.47
2023-01-03T03:48:17.226Z,2.07
2023-01-03T03:50:48.691Z,2.20
2023-01-03T03:53:18.035Z,2.63
2023-01-03T03:55:49.946Z,2.27
2023-01-03T03:58:19.311Z,3.13
2023-01-03T04:00:48.744Z,2.27
2023-01-03T04:03:18.571Z,2.20
2023-01-03T04:05:48.583Z,2.43
2023-01-03T04:08:16.601Z,3.17
2023-01-03T04:10:44.589Z,2.23
2023-01-03T04:13:12.590Z,2.07
2023-01-03T04:15:40.559Z,2.17
2023-01-03T04:18:08.494Z,5.20
2023-01-03T04:20:37.902Z,1.80
2023-01-03T04:23:05.929Z,2.17
2023-01-03T04:25:33.868Z,2.67
2023-01-03T04:28:01.810Z,1.80
2023-01-03T04:30:29.838Z,1.90
2023-01-03T04:32:57.811Z,2.17
2023-01-03T04:35:25.781Z,2.07
2023-01-03T04:37:55.333Z,2.30
2023-01-03T04:40:23.385Z,2.20
2023-01-03T04:43:08.623Z,2.30
2023-01-03T04:45:36.836Z,2.77
2023-01-03T04:48:05.259Z,2.93
2023-01-03T04:50:33.486Z,2.50
2023-01-03T04:53:02.922Z,2.40
2023-01-03T04:55:30.924Z,2.60
2023-01-03T04:57:58.896Z,3.10
2023-01-03T05:00:26.854Z,2.43
2023-01-03T05:02:54.829Z,3.00
2023-01-03T05:05:22.779Z,2.43
2023-01-03T05:07:50.739Z,2.60
2023-01-03T05:10:20.120Z,2.97
2023-01-03T05:13:00.114Z,3.50
2023-01-03T05:15:28.369Z,2.70
2023-01-03T05:17:56.585Z,2.70
2023-01-03T05:20:43.003Z,2.93
2023-01-03T05:23:31.039Z,3.27
2023-01-03T05:26:00.836Z,2.60
2023-01-03T05:28:29.091Z,3.13
2023-01-03T05:30:59.035Z,3.17
2023-01-03T05:33:27.065Z,2.50
2023-01-03T05:35:55.247Z,2.80
2023-01-03T05:38:24.284Z,2.70
2023-01-03T05:40:52.643Z,3.07
2023-01-03T05:43:22.119Z,2.47
2023-01-03T05:45:51.326Z,2.80
2023-01-03T05:48:19.880Z,2.60
2023-01-03T05:50:48.280Z,2.27
2023-01-03T05:53:16.450Z,2.33
2023-01-03T05:55:44.463Z,2.47
2023-01-03T05:58:13.197Z,2.80
2023-01-03T06:00:42.757Z,2.27
2023-01-03T06:03:10.744Z,2.30
2023-01-03T06:05:40.826Z,4.33
2023-01-03T06:08:11.287Z,2.13
2023-01-03T06:10:40.662Z,2.10
2023-01-03T06:13:08.904Z,3.33
2023-01-03T06:15:36.897Z,1.90
2023-01-03T06:18:05.317Z,2.77
2023-01-03T06:20:33.275Z,2.83
2023-01-03T06:23:01.231Z,2.00
2023-01-03T06:25:29.247Z,3.67
2023-01-03T06:27:57.236Z,2.30
2023-01-03T06:30:25.219Z,2.20
2023-01-03T06:32:53.314Z,2.93
2023-01-03T06:35:23.476Z,4.80
2023-01-03T06:37:51.453Z,3.23
2023-01-03T06:40:19.610Z,4.70
2023-01-03T06:42:47.614Z,3.17
2023-01-03T06:45:33.583Z,4.03
2023-01-03T06:48:22.331Z,2.27
2023-01-03T06:51:09.089Z,2.50
2023-01-03T06:53:38.040Z,2.33
2023-01-03T06:56:06.567Z,3.50
2023-01-03T06:58:34.810Z,1.97
2023-01-03T07:01:04.071Z,2.03
2023-01-03T07:03:32.277Z,2.37
2023-01-03T07:06:01.877Z,1.87
2023-01-03T07:08:30.046Z,3.23
2023-01-03T07:10:58.224Z,7.67
2023-01-03T07:13:43.509Z,8.90
2023-01-03T07:16:15.173Z,5.10
2023-01-03T07:18:43.517Z,5.90
2023-01-03T07:21:14.601Z,6.03
2023-01-03T07:23:42.986Z,4.93
2023-01-03T07:26:11.080Z,4.07
2023-01-03T07:28:39.182Z,3.70
2023-01-03T07:31:07.806Z,4.23
2023-01-03T07:33:37.439Z,4.30
2023-01-03T07:36:11.619Z,4.00
2023-01-03T07:38:42.372Z,7.40
2023-01-03T07:41:10.713Z,4.00
2023-01-03T07:43:38.194Z,4.93
2023-01-03T07:46:07.135Z,8.67
2023-01-03T07:48:35.195Z,7.00
2023-01-03T07:51:03.547Z,9.17
2023-01-03T07:53:31.562Z,8.10
2023-01-03T07:56:10.739Z,7.73
2023-01-03T07:58:41.640Z,8.23
2023-01-03T08:01:10.891Z,8.00
2023-01-03T08:03:39.600Z,7.30
2023-01-03T08:06:08.856Z,10.00
2023-01-03T08:08:37.333Z,9.03
2023-01-03T08:11:24.608Z,7.97
2023-01-03T08:13:53.252Z,9.83
2023-01-03T08:16:21.485Z,9.47
2023-01-03T08:18:49.924Z,8.03
2023-01-03T08:21:18.042Z,9.40
2023-01-03T08:23:46.233Z,9.43
2023-01-03T08:26:16.522Z,11.83
2023-01-03T08:28:45.173Z,10.73
2023-01-03T08:31:16.258Z,8.37
2023-01-03T08:33:47.112Z,10.83
2023-01-03T08:36:15.688Z,9.23
2023-01-03T08:38:46.052Z,14.73
2023-01-03T08:41:17.170Z,10.97
2023-01-03T08:43:46.777Z,10.10
2023-01-03T08:46:15.851Z,9.43
2023-01-03T08:48:43.978Z,9.77
2023-01-03T08:51:12.063Z,9.80
2023-01-03T08:53:40.297Z,10.77
2023-01-03T08:56:08.786Z,10.17
2023-01-03T08:58:38.282Z,9.93
2023-01-03T09:01:07.106Z,9.40
2023-01-03T09:03:35.339Z,12.10
2023-01-03T09:06:04.047Z,11.73
2023-01-03T09:08:32.656Z,8.83
2023-01-03T09:11:00.940Z,9.10
2023-01-03T09:13:29.024Z,9.83
2023-01-03T09:16:03.215Z,10.30
2023-01-03T09:18:34.027Z,9.03
2023-01-03T09:21:03.547Z,10.17
2023-01-03T09:23:31.801Z,8.10
2023-01-03T09:25:59.900Z,8.30
2023-01-03T09:28:28.041Z,6.60
2023-01-03T09:30:56.114Z,9.07
2023-01-03T09:33:25.776Z,7.10
2023-01-03T09:35:54.390Z,8.00
2023-01-03T09:38:22.643Z,7.70
2023-01-03T09:40:58.207Z,7.97
2023-01-03T09:43:27.157Z,8.37
2023-01-03T09:45:58.431Z,5.53
2023-01-03T09:48:30.996Z,5.63
2023-01-03T09:51:19.575Z,6.53
2023-01-03T09:54:04.611Z,6.37
2023-01-03T09:56:51.129Z,4.70
2023-01-03T09:59:36.926Z,7.63
2023-01-03T10:02:35.234Z,4.90
2023-01-03T10:05:24.433Z,5.70
2023-01-03T10:08:04.066Z,3.83
2023-01-03T10:10:34.343Z,4.67
2023-01-03T10:13:07.319Z,4.03
2023-01-03T10:15:40.777Z,3.70
2023-01-03T10:18:16.196Z,6.77
2023-01-03T10:20:47.960Z,3.07
2023-01-03T10:23:17.886Z,3.83
2023-01-03T10:25:46.911Z,4.00
2023-01-03T10:28:19.071Z,3.67
2023-01-03T10:30:59.446Z,4.93
2023-01-03T10:33:33.869Z,6.67
2023-01-03T10:36:05.172Z,2.53
2023-01-03T10:38:42.596Z,3.40
2023-01-03T10:41:17.230Z,2.30
2023-01-03T10:43:45.836Z,13.90
2023-01-03T10:46:16.389Z,9.63
2023-01-03T10:51:42.442Z,2.67
2023-01-03T10:54:14.595Z,4.60
2023-01-03T10:56:42.880Z,2.10
2023-01-03T10:59:16.807Z,7.57
2023-01-03T11:01:57.060Z,2.43
2023-01-03T11:04:25.516Z,3.33
2023-01-03T11:07:04.003Z,5.77
2023-01-03T11:09:37.200Z,3.63
2023-01-03T11:12:07.251Z,4.27
2023-01-03T11:14:35.330Z,2.23
2023-01-03T11:17:04.653Z,2.83
2023-01-03T11:19:33.517Z,4.07
2023-01-03T11:22:06.016Z,3.03
2023-01-03T11:24:52.736Z,1.93
2023-01-03T11:27:24.774Z,2.40
2023-01-03T11:30:00.391Z,0.60
2023-01-03T11:32:35.712Z,2.57
2023-01-03T11:35:23.285Z,0.73
2023-01-03T11:37:55.448Z,1.37
2023-01-03T11:40:27.782Z,1.00
2023-01-03T11:43:03.821Z,1.10
2023-01-03T11:45:36.044Z,1.13
2023-01-03T11:48:12.826Z,2.17
2023-01-03T11:50:50.616Z,0.93
2023-01-03T11:53:25.843Z,3.27
2023-01-03T11:56:01.009Z,0.97
2023-01-03T11:58:44.302Z,1.07
2023-01-03T12:01:17.822Z,1.13
2023-01-03T12:03:56.955Z,1.80
2023-01-03T12:06:29.130Z,1.30
2023-01-03T12:09:06.699Z,1.73
2023-01-03T12:11:42.879Z,1.63
2023-01-03T12:14:14.995Z,1.93
2023-01-03T12:16:45.319Z,1.77
2023-01-03T12:19:23.638Z,2.03
2023-01-03T12:21:52.908Z,3.00
2023-01-03T12:24:27.763Z,2.13
2023-01-03T12:26:56.927Z,3.57
2023-01-03T12:29:31.284Z,2.80
2023-01-03T12:32:03.624Z,2.13
2023-01-03T12:34:33.783Z,1.90
2023-01-03T12:37:06.795Z,2.03
2023-01-03T12:39:38.096Z,2.50
2023-01-03T12:42:08.999Z,2.50
2023-01-03T12:44:40.063Z,3.37
2023-01-03T12:47:11.576Z,5.47
2023-01-03T12:49:42.746Z,2.33
2023-01-03T12:52:16.703Z,3.10
2023-01-03T12:54:48.897Z,3.87
2023-01-03T12:57:31.597Z,1.97
2023-01-03T13:00:08.370Z,2.50
2023-01-03T13:02:42.338Z,2.83
2023-01-03T13:05:16.141Z,1.80
2023-01-03T13:07:47.275Z,2.23
2023-01-03T13:10:17.984Z,2.70
2023-01-03T13:12:48.839Z,45.27
2023-01-03T13:15:29.833Z,2.70
2023-01-03T13:18:16.225Z,1.77
2023-01-03T13:20:49.658Z,3.17
2023-01-03T13:23:32.044Z,3.27
2023-01-03T13:26:20.187Z,1.73
2023-01-03T13:28:48.176Z,3.93
2023-01-03T13:31:46.858Z,2.10
2023-01-03T13:34:32.998Z,1.77
2023-01-03T13:37:11.132Z,1.23
2023-01-03T13:39:39.776Z,1.23
2023-01-03T13:42:08.000Z,4.27
2023-01-03T13:44:36.013Z,5.43
2023-01-03T13:47:04.939Z,0.90
2023-01-03T13:49:32.971Z,1.53
2023-01-03T13:52:05.645Z,3.87
2023-01-03T13:54:57.138Z,2.93
2023-01-03T13:57:33.387Z,2.33
2023-01-03T14:00:03.176Z,8.43
2023-01-03T14:02:51.430Z,3.23
2023-01-03T14:05:34.332Z,1.30
2023-01-03T14:08:10.231Z,1.90
2023-01-03T14:10:56.015Z,1.63
2023-01-03T14:13:34.311Z,0.77
2023-01-03T14:16:14.364Z,1.50
2023-01-03T14:18:42.887Z,1.20
2023-01-03T14:21:16.500Z,1.30
2023-01-03T14:23:59.566Z,1.40
2023-01-03T14:26:29.147Z,2.27
2023-01-03T14:28:58.628Z,1.53
2023-01-03T14:31:28.143Z,3.63
2023-01-03T14:33:57.564Z,1.03
2023-01-03T14:36:25.542Z,0.90
2023-01-03T14:38:54.274Z,2.20
2023-01-03T14:41:29.882Z,3.33
2023-01-03T14:44:03.197Z,0.80
2023-01-03T14:46:32.966Z,2.70
2023-01-03T14:49:03.771Z,1.80
2023-01-03T14:51:33.824Z,1.67
2023-01-03T14:54:01.981Z,6.87
2023-01-03T14:56:30.256Z,3.33
2023-01-03T14:58:58.505Z,2.63
2023-01-03T15:01:28.953Z,0.73
2023-01-03T15:03:57.431Z,1.00
2023-01-03T15:06:26.093Z,2.27
2023-01-03T15:08:55.328Z,3.67
2023-01-03T15:11:25.919Z,1.57
2023-01-03T15:13:55.719Z,0.80
2023-01-03T15:16:26.373Z,0.77
2023-01-03T15:19:01.339Z,1.83
2023-01-03T15:21:30.750Z,0.77
2023-01-03T15:23:59.002Z,1.10
2023-01-03T15:26:28.105Z,1.57
2023-01-03T15:28:57.285Z,1.93
2023-01-03T15:31:34.850Z,1.17
2023-01-03T15:34:05.303Z,2.47
2023-01-03T15:36:34.151Z,1.20
2023-01-03T15:39:02.388Z,2.77
2023-01-03T15:42:00.154Z,1.90
2023-01-03T15:44:37.156Z,2.53
2023-01-03T15:47:07.515Z,1.30
2023-01-03T15:49:40.472Z,1.20
2023-01-03T15:52:08.791Z,11.37
2023-01-03T15:54:36.747Z,1.30
2023-01-03T15:57:08.050Z,1.57
2023-01-03T15:59:43.066Z,1.40
2023-01-03T16:02:15.066Z,2.83
2023-01-03T16:04:44.654Z,1.40
2023-01-03T16:07:13.086Z,1.40
2023-01-03T16:09:41.281Z,3.10
2023-01-03T16:12:12.816Z,3.13
2023-01-03T16:14:42.324Z,1.73
2023-01-03T16:17:12.984Z,2.70
2023-01-03T16:19:40.932Z,1.07
2023-01-03T16:25:02.024Z,1.40
2023-01-03T16:27:30.054Z,3.37
2023-01-03T16:29:58.072Z,1.43
2023-01-03T16:32:27.660Z,1.80
2023-01-03T16:34:56.773Z,2.80
2023-01-03T16:37:27.172Z,1.93
2023-01-03T16:39:55.318Z,1.73
2023-01-03T16:42:27.720Z,1.70
2023-01-03T16:44:56.379Z,1.20
2023-01-03T16:47:25.359Z,1.73
2023-01-03T16:49:54.763Z,1.10
2023-01-03T16:52:25.593Z,1.60
2023-01-03T16:54:55.454Z,4.50
2023-01-03T16:57:23.564Z,2.63
2023-01-03T16:59:51.536Z,1.80
2023-01-03T17:02:19.824Z,6.80
2023-01-03T17:04:48.373Z,3.77
2023-01-03T17:07:18.348Z,2.67
2023-01-03T17:09:47.874Z,2.77
2023-01-03T17:12:19.176Z,3.60
2023-01-03T17:14:47.232Z,8.03
2023-01-03T17:17:18.120Z,2.70
2023-01-03T17:20:04.859Z,3.77
2023-01-03T17:22:33.789Z,20.20
2023-01-03T17:25:01.837Z,3.17
2023-01-03T17:27:32.880Z,2.43
2023-01-03T17:30:02.612Z,3.43
2023-01-03T17:32:30.870Z,3.23
2023-01-03T17:34:58.902Z,4.77
2023-01-03T17:37:27.231Z,4.10
2023-01-03T17:39:58.345Z,3.93
2023-01-03T17:42:27.135Z,5.00
2023-01-03T17:45:13.892Z,5.13
2023-01-03T17:48:05.141Z,5.77
2023-01-03T17:50:33.422Z,2.40
2023-01-03T17:53:01.726Z,3.67
2023-01-03T17:55:30.579Z,7.23
2023-01-03T17:58:01.029Z,8.10
2023-01-03T18:00:31.115Z,8.33
2023-01-03T18:03:01.691Z,15.53
2023-01-03T18:05:30.496Z,29.30
2023-01-03T18:07:59.740Z,23.07
2023-01-03T18:10:31.267Z,25.87
2023-01-03T18:12:59.291Z,29.97
2023-01-03T18:15:27.284Z,23.47
2023-01-03T18:17:56.816Z,19.00
2023-01-03T18:20:26.810Z,17.70
2023-01-03T18:22:54.853Z,14.83
2023-01-03T18:25:24.077Z,15.17
2023-01-03T18:27:52.940Z,20.37
2023-01-03T18:30:20.984Z,18.77
2023-01-03T18:32:48.983Z,24.63
2023-01-03T18:35:26.577Z,17.40
2023-01-03T18:37:56.883Z,26.10
2023-01-03T18:40:27.633Z,20.20
2023-01-03T18:43:13.725Z,20.23
2023-01-03T18:45:42.394Z,11.67
2023-01-03T18:48:13.687Z,5.77
2023-01-03T18:50:43.265Z,12.50
2023-01-03T18:53:16.213Z,10.17
2023-01-03T18:55:44.492Z,13.00
2023-01-03T18:58:18.553Z,11.20
2023-01-03T19:00:46.771Z,11.53
2023-01-03T19:03:20.928Z,6.10
2023-01-03T19:05:50.481Z,7.90
2023-01-03T19:08:19.431Z,7.70
2023-01-03T19:10:47.537Z,5.43
2023-01-03T19:13:24.803Z,6.27
2023-01-03T19:15:53.094Z,7.57
2023-01-03T19:18:21.091Z,7.77
2023-01-03T19:20:50.718Z,6.63
2023-01-03T19:23:23.428Z,6.73
2023-01-03T19:25:51.486Z,6.07
2023-01-03T19:28:22.197Z,6.70
2023-01-03T19:30:50.638Z,7.37
2023-01-03T19:33:19.593Z,9.00
2023-01-03T19:35:47.733Z,7.10
2023-01-03T19:38:17.150Z,7.40
2023-01-03T19:40:45.844Z,6.97
2023-01-03T19:43:19.715Z,7.27
2023-01-03T19:45:47.861Z,6.37
2023-01-03T19:48:17.483Z,5.70
2023-01-03T19:50:45.462Z,8.83
2023-01-03T19:53:13.882Z,10.50
2023-01-03T19:55:45.148Z,8.57
2023-01-03T19:58:16.243Z,11.30
2023-01-03T20:00:44.679Z,10.33
2023-01-03T20:03:18.217Z,9.87
2023-01-03T20:05:46.379Z,9.03
2023-01-03T20:08:14.376Z,10.00
2023-01-03T20:10:44.220Z,13.10
2023-01-03T20:13:15.610Z,7.93
2023-01-03T20:15:44.888Z,14.57
2023-01-03T20:18:23.400Z,8.77
2023-01-03T20:20:51.491Z,8.77
2023-01-03T20:23:19.498Z,7.37
2023-01-03T20:25:50.364Z,9.73
2023-01-03T20:28:19.577Z,7.87
2023-01-03T20:30:47.742Z,11.20
2023-01-03T20:33:15.837Z,6.30
2023-01-03T20:38:31.737Z,7.07
2023-01-03T20:41:01.086Z,8.43
2023-01-03T20:43:29.031Z,10.30
2023-01-03T20:45:58.140Z,8.30
2023-01-03T20:48:26.800Z,8.63
2023-01-03T20:50:55.029Z,8.87
2023-01-03T20:53:23.908Z,8.93
2023-01-03T20:55:52.081Z,7.97
2023-01-03T20:58:22.219Z,8.40
2023-01-03T21:00:50.285Z,10.03
2023-01-03T21:03:18.467Z,8.83
2023-01-03T21:05:46.540Z,8.37
2023-01-03T21:08:41.488Z,5.80
2023-01-03T21:11:09.456Z,7.13
2023-01-03T21:13:39.193Z,6.03
2023-01-03T21:16:11.993Z,8.00
2023-01-03T21:18:40.007Z,5.43
2023-01-03T21:21:08.047Z,4.13
2023-01-03T21:23:36.909Z,5.60
2023-01-03T21:26:04.882Z,6.37
2023-01-03T21:28:32.870Z,5.83
2023-01-03T21:31:05.343Z,5.07
2023-01-03T21:33:33.707Z,4.07
2023-01-03T21:36:02.010Z,5.90
2023-01-03T21:38:30.025Z,6.17
2023-01-03T21:40:57.967Z,5.70
2023-01-03T21:43:25.955Z,6.50
2023-01-03T21:45:56.482Z,5.90
2023-01-03T21:48:26.447Z,9.10
2023-01-03T21:50:54.393Z,7.93
2023-01-03T21:53:23.149Z,14.97
2023-01-03T21:55:51.336Z,16.93
2023-01-03T21:58:21.260Z,12.67
2023-01-03T22:00:49.253Z,17.77
2023-01-03T22:03:35.701Z,15.80
2023-01-03T22:06:09.416Z,13.33
2023-01-03T22:08:37.413Z,14.80
2023-01-03T22:11:05.482Z,15.63
2023-01-03T22:13:33.590Z,16.87
2023-01-03T22:16:04.089Z,14.83
2023-01-03T22:18:32.136Z,15.00
2023-01-03T22:21:02.679Z,15.23
2023-01-03T22:23:32.260Z,16.27
2023-01-03T22:26:02.104Z,17.80
2023-01-03T22:28:33.915Z,18.13
2023-01-03T22:31:01.877Z,15.57
2023-01-03T22:33:29.819Z,17.13
2023-01-03T22:35:59.177Z,17.00
2023-01-03T22:38:27.138Z,18.50
2023-01-03T22:40:56.511Z,12.90
2023-01-03T22:43:24.546Z,15.17
2023-01-03T22:45:52.685Z,16.10
2023-01-03T22:48:21.446Z,12.30
2023-01-03T22:50:49.372Z,17.67
2023-01-03T22:53:17.356Z,19.40
2023-01-03T22:55:45.345Z,13.23
2023-01-03T22:58:16.382Z,13.43
2023-01-03T23:00:46.000Z,12.50
2023-01-03T23:03:14.010Z,11.37
2023-01-03T23:05:41.953Z,13.40
2023-01-03T23:08:10.016Z,12.90
2023-01-03T23:10:38.017Z,11.23
2023-01-03T23:13:05.165Z,11.97
2023-01-03T23:15:35.676Z,13.40
2023-01-03T23:18:03.630Z,15.43
2023-01-03T23:20:32.514Z,13.63
2023-01-03T23:23:03.087Z,13.27
2023-01-03T23:25:31.581Z,16.50
2023-01-03T23:27:59.516Z,13.03
2023-01-03T23:30:27.813Z,12.03
2023-01-03T23:32:57.281Z,12.20
2023-01-03T23:35:25.276Z,10.77
2023-01-03T23:37:53.349Z,11.23
2023-01-03T23:40:21.337Z,14.23
2023-01-03T23:42:49.342Z,11.43
2023-01-03T23:45:17.451Z,13.23
2023-01-03T23:47:45.411Z,10.23
2023-01-03T23:50:14.795Z,11.23
2023-01-03T23:52:42.704Z,12.10
2023-01-03T23:55:12.769Z,11.20
2023-01-03T23:57:41.116Z,11.70
